Terminal Aerodrome Forecast
Issued by NWS

Home | Current Version | Previous Version | Text Only | Print | Product List | Glossary On
Versions: 1 2 3 4 5 6 7 8 9 10 11 12 13 14 15 16 17 18
000
FTUS45 KTWC 251136
TAFOLS
TAF
KOLS 251136Z 2512/2612 VRB04KT P6SM SCT130 BKN180
     FM251800 21010KT P6SM SCT090 BKN150
     FM252100 26011G17KT P6SM VCTS FEW060 SCT120CB BKN180
     FM260200 16009KT P6SM SCT130 BKN200
     FM260800 VRB04KT P6SM SCT150 BKN200=

USA.gov is the U.S. government's official web portal to all federal, state and local government web resources and services.